Time;durP1;ratioP1;P1;durP2;ratioP2;P2;SDS_P1;SDS_P2;PMS_P1;PMS_P2;Temp;Humidity;BMP_temperature;BMP_pressure;BME280_temperature;BME280_humidity;BME280_pressure;Samples;Min_cycle;Max_cycle;Signal;HPM_P1;HPM_P2
2022/10/13 02:43:20;;;;;;;;;;;;;;;;;;;;;
2022/10/13 03:03:24;;;;;;;12.77;6.57;;;;;;;;;;6243054;22;20429;-95
2022/10/13 03:12:56;;;;;;;13.90;6.80;;;;;;;;;;6279235;22;20376;-95
2022/10/13 03:15:54;;;;;;;24.37;7.70;;;;;;;;;;6229177;22;20413;-95
2022/10/13 03:25:55;;;;;;;;;;;;;;;;;;;;;
2022/10/13 03:32:20;;;;;;;;;;;;;;;;;;;;;
2022/10/13 03:39:50;;;;;;;;;;;;;;;;;;;;;
2022/10/13 03:49:03;;;;;;;12.23;5.67;;;;;;;;;;5956322;23;20495;-96
2022/10/13 03:58:41;;;;;;;14.13;5.60;;;;;;;;;;5958906;24;20413;-95
2022/10/13 04:05:18;;;;;;;14.50;5.70;;;;;;;;;;5984220;24;20379;-95
2022/10/13 04:08:03;;;;;;;18.27;5.57;;;;;;;;;;5983679;24;20495;-94
2022/10/13 04:17:46;;;;;;;16.30;6.10;;;;;;;;;;5983136;24;20374;-95
2022/10/13 04:24:03;;;;;;;19.73;6.10;;;;;;;;;;6272296;22;20385;-95
2022/10/13 04:30:35;;;;;;;38.27;6.77;;;;;;;;;;6278388;22;20887;-95
2022/10/13 04:36:31;;;;;;;13.63;6.77;;;;;;;;;;6278915;22;20381;-96
2022/10/13 04:49:41;;;;;;;11.33;5.60;;;;;;;;;;6278212;22;20424;-95
2022/10/13 04:52:46;;;;;;;15.17;5.40;;;;;;;;;;6228111;22;20436;-96
2022/10/13 05:06:09;;;;;;;13.93;5.93;;;;;;;;;;6280744;22;20833;-94
2022/10/13 05:33:00;;;;;;;8.63;4.93;;;;;;;;;;6310274;22;20373;-95
2022/10/13 05:36:10;;;;;;;11.20;5.37;;;;;;;;;;6265177;22;20405;-95
2022/10/13 05:45:56;;;;;;;14.77;5.80;;;;;;;;;;6070077;23;20387;-94
2022/10/13 06:09:53;;;;;;;10.77;5.30;;;;;;;;;;6315684;22;20415;-95
2022/10/13 06:19:33;;;;;;;11.20;4.90;;;;;;;;;;6186871;23;20380;-95
2022/10/13 06:22:36;;;;;;;10.00;5.20;;;;;;;;;;6146142;23;20420;-95
2022/10/13 06:29:03;;;;;;;13.03;6.43;;;;;;;;;;6188068;23;20479;-96
2022/10/13 06:38:35;;;;;;;11.70;5.30;;;;;;;;;;6185185;23;20417;-95
2022/10/13 06:41:22;;;;;;;11.23;5.80;;;;;;;;;;6143321;23;20423;-95
2022/10/13 06:47:54;;;;;;;13.30;5.13;;;;;;;;;;6186759;23;20379;-96
2022/10/13 06:54:12;;;;;;;11.07;5.30;;;;;;;;;;6313361;22;20396;-96
2022/10/13 07:00:57;;;;;;;11.57;5.20;;;;;;;;;;6328710;22;20368;-96
2022/10/13 07:04:24;;;;;;;;;;;;;;;;;;;;;
2022/10/13 07:21:21;;;;;;;;;;;;;;;;;;;;;
2022/10/13 07:41:54;;;;;;;22.57;7.30;;;;;;;;;;5977027;23;20437;-90
2022/10/13 07:44:21;;;;;;;15.10;6.90;;;;;;;;;;5991068;23;20417;-89
2022/10/13 07:46:49;;;;;;;22.57;6.97;;;;;;;;;;6019886;23;20754;-91
2022/10/13 08:13:51;;;;;;;16.00;7.70;;;;;;;;;;6276906;22;20950;-94
2022/10/13 08:16:27;;;;;;;17.03;7.13;;;;;;;;;;6252319;22;20467;-96
2022/10/13 08:29:18;;;;;;;17.70;7.40;;;;;;;;;;6281877;22;20460;-94
2022/10/13 09:18:36;;;;;;;13.57;2.60;;;;;;;21.34;nan;102050.59;6198361;22;2308022;-87
2022/10/13 09:21:21;;;;;;;14.07;3.03;;;;;;;21.45;nan;102047.03;6203514;23;20539;-88
2022/10/13 09:23:51;;;;;;;11.30;2.80;;;;;;;21.58;nan;102051.53;6204179;23;20410;-88
2022/10/13 09:26:23;;;;;;;23.27;2.70;;;;;;;21.68;nan;102047.13;6202899;23;20406;-87
2022/10/13 09:29:10;;;;;;;13.77;2.77;;;;;;;21.79;nan;102045.47;6202438;23;20958;-91
2022/10/13 09:31:41;;;;;;;14.90;2.50;;;;;;;21.84;nan;102041.97;6205475;23;20421;-87
2022/10/13 09:34:44;;;;;;;23.73;2.73;;;;;;;22.05;nan;102053.47;6230769;23;20406;-94
2022/10/13 09:41:20;;;;;;;17.00;3.20;;;;;;;22.25;nan;102041.16;6255391;23;20440;-92
2022/10/13 09:43:57;;;;;;;12.60;2.30;;;;;;;22.35;nan;102036.66;6228744;23;20417;-92
2022/10/13 09:47:10;;;;;;;12.53;2.33;;;;;;;22.49;nan;102048.47;6231180;23;20888;-94
2022/10/13 09:49:41;;;;;;;6.70;1.97;;;;;;;22.52;nan;102025.66;6254998;23;20424;-95
2022/10/13 09:52:41;;;;;;;12.60;1.90;;;;;;;22.75;nan;102052.69;6225945;23;20441;-92
2022/10/13 10:03:22;;;;;;;9.63;2.30;;;;;;;23.23;nan;102066.38;6248335;23;20370;-92
2022/10/13 10:05:58;;;;;;;9.30;2.40;;;;;;;23.30;nan;102052.25;6246318;23;20779;-92
2022/10/13 10:08:46;;;;;;;15.10;2.60;;;;;;;23.46;nan;102057.09;6221855;23;20466;-92
2022/10/13 10:12:09;;;;;;;5.57;2.17;;;;;;;23.58;nan;102060.72;6246850;23;20537;-92
2022/10/13 10:19:08;;;;;;;10.33;1.97;;;;;;;23.83;nan;102049.22;6247012;23;21335;-93
2022/10/13 10:22:32;;;;;;;8.37;2.37;;;;;;;23.97;nan;102056.16;6217042;23;20439;-92
2022/10/13 10:25:25;;;;;;;10.97;1.97;;;;;;;24.13;nan;102053.66;6073781;23;20407;-93
2022/10/13 10:28:41;;;;;;;7.03;1.73;;;;;;;24.25;nan;102057.22;6095339;23;20396;-92
2022/10/13 10:35:29;;;;;;;9.33;2.00;;;;;;;24.45;nan;102057.56;6097270;23;20448;-93
2022/10/13 10:38:40;;;;;;;14.67;2.47;;;;;;;24.53;nan;102045.97;6096540;23;20464;-93
2022/10/13 10:41:36;;;;;;;10.77;1.80;;;;;;;24.67;nan;102043.69;6095151;23;20465;-91
2022/10/13 10:44:29;;;;;;;8.37;1.80;;;;;;;24.77;nan;102043.84;6039767;23;20494;-92
2022/10/13 10:47:05;;;;;;;14.17;2.60;;;;;;;24.86;nan;102044.22;6049269;23;20498;-93
2022/10/13 10:49:38;;;;;;;13.90;2.07;;;;;;;24.97;nan;102041.38;6022206;23;20412;-92
2022/10/13 10:52:08;;;;;;;8.00;2.23;;;;;;;25.05;nan;102048.47;6068037;23;20420;-92
2022/10/13 10:54:48;;;;;;;11.57;2.10;;;;;;;25.13;nan;102050.81;6020586;23;20455;-93
2022/10/13 10:57:49;;;;;;;12.60;1.70;;;;;;;25.24;nan;102052.63;6044324;23;20499;-94
2022/10/13 11:00:44;;;;;;;12.20;2.10;;;;;;;25.34;nan;102050.00;6060906;23;20450;-92
2022/10/13 11:03:48;;;;;;;13.07;2.23;;;;;;;25.47;nan;102049.59;6136039;23;20424;-93
2022/10/13 11:06:35;;;;;;;10.63;2.30;;;;;;;25.69;nan;102062.75;6067404;23;20426;-92
2022/10/13 11:09:03;;;;;;;14.73;2.10;;;;;;;25.72;nan;102046.28;6067723;23;20415;-93
2022/10/13 11:11:40;;;;;;;5.23;1.33;;;;;;;25.81;nan;102049.44;6045281;23;20491;-94
2022/10/13 11:14:07;;;;;;;7.60;1.77;;;;;;;25.98;nan;102047.34;6044074;23;20956;-93
2022/10/13 11:17:31;;;;;;;7.20;2.00;;;;;;;26.00;nan;102047.94;6067665;23;20556;-93
2022/10/13 11:19:59;;;;;;;10.67;1.90;;;;;;;26.18;nan;102055.13;6031804;23;20439;-93
2022/10/13 11:22:29;;;;;;;13.17;1.80;;;;;;;26.27;nan;102058.28;6021266;23;20443;-93
2022/10/13 11:25:35;;;;;;;8.87;1.77;;;;;;;26.41;nan;102063.22;6019983;23;20427;-93
2022/10/13 11:28:22;;;;;;;6.57;1.70;;;;;;;26.55;nan;102068.38;6030393;23;20408;-93
2022/10/13 11:30:51;;;;;;;13.23;2.37;;;;;;;26.54;nan;102047.91;6067825;23;20423;-93
2022/10/13 11:33:38;;;;;;;12.47;1.83;;;;;;;26.78;nan;102063.22;6067754;23;20408;-93
2022/10/13 11:36:26;;;;;;;8.43;1.53;;;;;;;26.87;nan;102057.09;6066563;23;20420;-94
2022/10/13 11:39:22;;;;;;;12.67;1.70;;;;;;;26.98;nan;102061.69;6067389;23;20427;-93
2022/10/13 11:42:11;;;;;;;6.60;1.70;;;;;;;27.10;nan;102059.53;6080542;23;20441;-93
2022/10/13 11:44:54;;;;;;;6.53;1.80;;;;;;;27.12;nan;102043.25;6155227;23;20408;-94
2022/10/13 11:47:42;;;;;;;5.77;2.17;;;;;;;27.26;nan;102058.47;6154985;23;21052;-94
2022/10/13 11:50:51;;;;;;;6.60;1.50;;;;;;;27.34;nan;102057.09;6106764;23;20410;-93
2022/10/13 11:53:22;;;;;;;11.73;2.40;;;;;;;27.35;nan;102041.94;6143816;23;20417;-94
2022/10/13 11:56:03;;;;;;;8.83;1.90;;;;;;;27.47;nan;102060.25;6201604;23;20808;-93
2022/10/13 11:58:31;;;;;;;9.03;1.80;;;;;;;27.50;nan;102058.88;6171318;23;20415;-94
2022/10/13 12:01:13;;;;;;;10.30;1.70;;;;;;;27.49;nan;102055.22;6196348;23;20443;-93
2022/10/13 12:03:42;;;;;;;6.50;1.33;;;;;;;27.65;nan;102064.56;6220967;23;20540;-94
2022/10/13 12:06:22;;;;;;;8.10;1.90;;;;;;;27.69;nan;102046.03;6196213;23;20464;-94
2022/10/13 12:08:50;;;;;;;8.27;1.87;;;;;;;27.90;nan;102065.75;6195577;23;20725;-93
2022/10/13 12:11:31;;;;;;;7.00;1.80;;;;;;;28.02;nan;102067.19;6195790;23;20437;-94
2022/10/13 12:13:59;;;;;;;9.53;2.83;;;;;;;28.00;nan;102051.72;6195936;23;20421;-94
2022/10/13 12:16:28;;;;;;;11.30;3.70;;;;;;;28.00;nan;102055.38;6196651;23;20758;-94
2022/10/13 12:19:20;;;;;;;13.80;3.70;;;;;;;28.05;nan;102057.34;6171926;23;20425;-94
2022/10/13 12:21:49;;;;;;;20.13;3.93;;;;;;;27.93;nan;102045.50;6196075;23;20961;-94
2022/10/13 12:24:17;;;;;;;32.17;4.37;;;;;;;27.94;nan;102048.03;6195701;23;20414;-93
2022/10/13 12:26:45;;;;;;;9.83;3.53;;;;;;;27.92;nan;102047.47;6195657;23;20414;-94
2022/10/13 12:29:14;;;;;;;14.13;3.30;;;;;;;27.91;nan;102051.41;6195832;23;20407;-94
2022/10/13 12:31:46;;;;;;;16.63;3.63;;;;;;;27.80;nan;102025.25;6220389;23;20411;-94
2022/10/13 12:34:19;;;;;;;11.43;3.73;;;;;;;27.93;nan;102037.06;6196043;23;20425;-94
2022/10/13 12:37:02;;;;;;;14.20;3.60;;;;;;;27.94;nan;102031.19;6196811;23;20487;-94
2022/10/13 12:39:32;;;;;;;13.20;4.10;;;;;;;27.84;nan;102017.13;6196113;23;20407;-94
2022/10/13 12:42:01;;;;;;;15.30;4.10;;;;;;;27.87;nan;102022.19;6220336;23;20496;-94
2022/10/13 12:44:30;;;;;;;16.67;3.40;;;;;;;27.86;nan;102026.13;6196563;23;20415;-94
2022/10/13 12:47:01;;;;;;;10.10;2.80;;;;;;;27.93;nan;102009.81;6195802;23;20442;-94
2022/10/13 12:49:35;;;;;;;13.53;3.93;;;;;;;27.94;nan;102005.03;6220585;23;20743;-94
2022/10/13 12:52:09;;;;;;;17.80;3.30;;;;;;;28.07;nan;102016.59;6220734;23;20721;-95
2022/10/13 12:54:38;;;;;;;18.43;3.03;;;;;;;28.06;nan;102014.06;6220282;23;20417;-94
2022/10/13 12:57:16;;;;;;;14.93;3.40;;;;;;;28.11;nan;101994.34;6195439;23;20729;-94
2022/10/13 12:59:44;;;;;;;11.03;2.83;;;;;;;28.10;nan;101993.50;6245566;23;20459;-94
2022/10/13 13:02:40;;;;;;;8.93;2.70;;;;;;;28.24;nan;101984.56;6195528;23;20451;-94
2022/10/13 13:05:32;;;;;;;16.73;3.30;;;;;;;28.29;nan;101984.56;6244024;23;20413;-94
2022/10/13 13:08:01;;;;;;;17.90;3.17;;;;;;;28.32;nan;101972.72;6244960;23;20897;-94
2022/10/13 13:10:30;;;;;;;7.20;2.57;;;;;;;28.28;nan;101960.38;6195406;23;20419;-95
2022/10/13 13:13:13;;;;;;;12.00;3.43;;;;;;;28.35;nan;101977.78;6220801;23;20406;-94
2022/10/13 13:15:40;;;;;;;10.10;3.30;;;;;;;28.38;nan;101965.97;6195995;23;20418;-94
2022/10/13 13:18:38;;;;;;;10.50;2.33;;;;;;;28.49;nan;101976.91;6195288;23;20417;-94
2022/10/13 13:21:11;;;;;;;9.30;2.60;;;;;;;28.43;nan;101954.72;6245663;23;20445;-94
2022/10/13 13:23:39;;;;;;;17.47;2.80;;;;;;;28.47;nan;101956.69;6196061;23;20461;-95
2022/10/13 13:26:19;;;;;;;10.83;2.50;;;;;;;28.45;nan;101946.84;6220081;23;20425;-94
2022/10/13 13:28:51;;;;;;;14.57;2.67;;;;;;;28.51;nan;101948.50;6199318;23;20437;-94
2022/10/13 13:31:21;;;;;;;12.33;2.47;;;;;;;28.69;nan;101950.72;6197698;23;20411;-95
2022/10/13 13:33:50;;;;;;;10.10;2.13;;;;;;;28.70;nan;101940.28;6113388;23;20507;-95
2022/10/13 13:36:22;;;;;;;13.87;2.37;;;;;;;28.70;nan;101924.25;6137469;23;20408;-95
2022/10/13 13:38:51;;;;;;;8.67;2.30;;;;;;;28.72;nan;101922.00;6113265;23;20417;-94
2022/10/13 13:41:52;;;;;;;17.60;2.63;;;;;;;28.83;nan;101931.28;6137129;23;20440;-95
2022/10/13 13:44:23;;;;;;;15.00;3.53;;;;;;;28.74;nan;101916.09;6161752;23;20449;-95
2022/10/13 13:46:51;;;;;;;10.13;2.40;;;;;;;28.77;nan;101907.91;6137683;23;20405;-95
2022/10/13 13:49:19;;;;;;;13.63;2.50;;;;;;;28.73;nan;101923.69;6113255;23;20450;-94
2022/10/13 13:51:47;;;;;;;14.30;2.90;;;;;;;28.66;nan;101911.06;6145626;23;20421;-94
2022/10/13 13:54:15;;;;;;;13.97;2.43;;;;;;;28.70;nan;101913.00;6197539;23;20411;-95
2022/10/13 13:56:43;;;;;;;15.33;2.67;;;;;;;28.75;nan;101917.78;6197405;23;20418;-95
2022/10/13 13:59:11;;;;;;;7.27;1.73;;;;;;;28.65;nan;101910.22;6197742;23;20756;-95
2022/10/13 14:01:45;;;;;;;11.33;2.70;;;;;;;28.69;nan;101930.16;6197473;23;20488;-94
2022/10/13 14:04:14;;;;;;;9.30;2.23;;;;;;;28.58;nan;101906.84;6221627;23;20414;-95
2022/10/13 14:06:42;;;;;;;6.37;2.53;;;;;;;28.61;nan;101902.63;6221448;23;20912;-94
2022/10/13 14:09:11;;;;;;;9.70;2.00;;;;;;;28.52;nan;101893.94;6197521;23;20493;-95
2022/10/13 14:11:39;;;;;;;6.50;2.00;;;;;;;28.63;nan;101901.22;6197413;23;20422;-95
2022/10/13 14:14:07;;;;;;;8.87;2.30;;;;;;;28.56;nan;101894.19;6196856;23;20421;-95
2022/10/13 14:16:36;;;;;;;11.07;2.70;;;;;;;28.69;nan;101894.44;6197737;23;20437;-95
2022/10/13 14:19:05;;;;;;;7.57;2.63;;;;;;;28.60;nan;101879.28;6196709;23;20438;-95
2022/10/13 14:21:33;;;;;;;13.10;2.60;;;;;;;28.56;nan;101875.34;6221827;23;20438;-94
2022/10/13 14:24:03;;;;;;;8.50;2.83;;;;;;;28.47;nan;101869.50;6197253;23;20480;-95
2022/10/13 14:26:31;;;;;;;12.63;2.13;;;;;;;28.48;nan;101875.97;6196643;23;20425;-94
2022/10/13 14:28:59;;;;;;;11.03;2.80;;;;;;;28.52;nan;101889.16;6196876;23;20758;-95
2022/10/13 14:31:27;;;;;;;6.27;2.07;;;;;;;28.39;nan;101874.84;6196537;23;20418;-95
2022/10/13 14:33:55;;;;;;;8.83;2.37;;;;;;;28.41;nan;101876.25;6197970;23;20490;-94
2022/10/13 14:36:24;;;;;;;9.73;2.40;;;;;;;28.40;nan;101882.16;6196953;23;20411;-95
2022/10/13 14:38:53;;;;;;;11.43;2.93;;;;;;;28.42;nan;101899.59;6196914;23;20402;-95
2022/10/13 14:41:22;;;;;;;6.63;1.90;;;;;;;28.35;nan;101887.78;6221469;23;20417;-95
2022/10/13 14:43:53;;;;;;;11.07;2.20;;;;;;;28.25;nan;101887.84;6196497;23;20422;-95
2022/10/13 14:50:08;;;;;;;5.53;1.93;;;;;;;27.87;nan;101884.47;6248622;23;20742;-95
2022/10/13 14:52:38;;;;;;;6.73;2.07;;;;;;;27.80;nan;101886.72;6196303;23;20426;-95
2022/10/13 14:55:08;;;;;;;11.77;2.50;;;;;;;27.87;nan;101892.06;6197334;23;20602;-95
2022/10/13 14:57:42;;;;;;;7.70;2.47;;;;;;;27.70;nan;101887.56;6222232;23;21012;-96
2022/10/13 15:00:11;;;;;;;10.03;1.80;;;;;;;27.72;nan;101890.06;6221448;23;20407;-95
2022/10/13 15:02:39;;;;;;;20.90;4.03;;;;;;;27.82;nan;101884.47;6220688;23;20445;-96
2022/10/13 15:05:07;;;;;;;9.47;2.60;;;;;;;27.88;nan;101882.50;6196944;23;20415;-95
2022/10/13 15:15:07;;;;;;;15.97;2.70;;;;;;;27.76;nan;101879.97;6247747;23;20378;-95
2022/10/13 15:17:36;;;;;;;8.30;2.07;;;;;;;27.67;nan;101870.44;6221585;23;20514;-95
2022/10/13 15:20:07;;;;;;;9.30;3.13;;;;;;;27.67;nan;101878.88;6196299;23;20446;-96
2022/10/13 15:22:35;;;;;;;10.40;1.80;;;;;;;27.76;nan;101880.81;6196730;23;20458;-95
2022/10/13 15:25:06;;;;;;;6.17;2.20;;;;;;;27.70;nan;101869.88;6196253;23;20414;-96
2022/10/13 15:27:35;;;;;;;12.27;2.47;;;;;;;27.67;nan;101876.06;6197629;23;20414;-95
2022/10/13 15:30:08;;;;;;;12.40;2.03;;;;;;;27.53;nan;101861.66;6198061;23;20511;-95
2022/10/13 15:32:36;;;;;;;11.13;2.00;;;;;;;27.47;nan;101868.44;6196687;23;20946;-95
2022/10/13 15:35:05;;;;;;;13.87;3.00;;;;;;;27.57;nan;101870.38;6195700;23;20426;-95
2022/10/13 15:37:32;;;;;;;12.77;1.90;;;;;;;27.45;nan;101865.91;6197154;23;20407;-95
2022/10/13 15:40:01;;;;;;;18.50;3.20;;;;;;;27.36;nan;101864.75;6196574;23;20413;-96
2022/10/13 15:42:29;;;;;;;19.80;3.13;;;;;;;27.29;nan;101861.38;6195824;23;20458;-95
2022/10/13 15:44:57;;;;;;;8.10;2.00;;;;;;;27.18;nan;101857.69;6195896;23;20419;-96
2022/10/13 15:47:41;;;;;;;10.60;2.67;;;;;;;27.03;nan;101859.63;6203574;23;20410;-96
2022/10/13 15:50:09;;;;;;;9.03;2.00;;;;;;;26.89;nan;101859.28;6195801;23;20421;-95
2022/10/13 15:52:38;;;;;;;7.07;2.33;;;;;;;26.91;nan;101873.06;6195965;23;20410;-95
2022/10/13 15:55:08;;;;;;;7.27;2.27;;;;;;;26.87;nan;101869.09;6196678;23;20403;-95
2022/10/13 15:57:36;;;;;;;20.60;3.33;;;;;;;26.71;nan;101865.41;6196129;23;20426;-96
2022/10/13 16:00:08;;;;;;;9.40;2.57;;;;;;;26.81;nan;101874.69;6221273;23;20415;-96
2022/10/13 16:02:39;;;;;;;11.47;2.10;;;;;;;26.73;nan;101858.41;6221215;23;20438;-95
2022/10/13 16:05:11;;;;;;;11.40;2.37;;;;;;;26.68;nan;101868.75;6197060;23;20823;-96
2022/10/13 16:07:40;;;;;;;8.17;2.30;;;;;;;26.65;nan;101874.91;6196307;23;20411;-95
2022/10/13 16:10:11;;;;;;;4.80;1.80;;;;;;;26.52;nan;101859.44;6196010;23;20425;-95
2022/10/13 16:12:38;;;;;;;5.10;2.60;;;;;;;26.45;nan;101853.22;6220522;23;20410;-95
2022/10/13 16:15:24;;;;;;;12.10;2.83;;;;;;;26.39;nan;101866.34;6197887;23;20882;-96
2022/10/13 16:17:52;;;;;;;11.20;2.83;;;;;;;26.30;nan;101864.34;6220160;23;20418;-96
2022/10/13 16:20:20;;;;;;;23.87;3.13;;;;;;;26.17;nan;101846.84;6195394;23;20446;-95
2022/10/13 16:22:48;;;;;;;14.97;2.30;;;;;;;26.22;nan;101853.63;6195497;23;20451;-95
2022/10/13 16:25:17;;;;;;;11.77;3.00;;;;;;;26.14;nan;101846.56;6196145;23;20411;-95
2022/10/13 16:27:45;;;;;;;9.57;2.70;;;;;;;26.01;nan;101842.28;6195525;23;20422;-96
2022/10/13 16:30:13;;;;;;;18.33;2.80;;;;;;;26.00;nan;101857.41;6195661;23;20410;-96
2022/10/13 16:32:41;;;;;;;9.20;3.67;;;;;;;26.11;nan;101863.94;6196957;23;20426;-95
2022/10/13 16:35:09;;;;;;;9.40;3.30;;;;;;;26.03;nan;101851.25;6196574;23;20582;-95
2022/10/13 16:37:38;;;;;;;8.50;2.70;;;;;;;25.87;nan;101855.06;6195796;23;20406;-95
2022/10/13 16:40:06;;;;;;;15.17;3.27;;;;;;;25.73;nan;101856.66;6195714;23;20422;-96
2022/10/13 16:42:34;;;;;;;6.57;2.47;;;;;;;25.57;nan;101864.06;6196190;23;20510;-96
2022/10/13 16:45:04;;;;;;;8.37;3.17;;;;;;;25.60;nan;101873.84;6195834;23;20905;-95
2022/10/13 16:47:32;;;;;;;8.87;3.40;;;;;;;25.44;nan;101870.91;6221095;23;20425;-96
2022/10/13 16:50:00;;;;;;;12.57;3.60;;;;;;;25.38;nan;101863.59;6195503;23;20415;-95
2022/10/13 16:52:28;;;;;;;9.83;3.33;;;;;;;25.29;nan;101861.53;6195774;23;20418;-95
2022/10/13 16:54:56;;;;;;;8.10;3.77;;;;;;;25.23;nan;101874.63;6196039;23;20445;-95
2022/10/13 16:57:25;;;;;;;12.07;3.90;;;;;;;25.17;nan;101874.84;6195981;23;20403;-95
2022/10/13 16:59:53;;;;;;;9.20;4.40;;;;;;;24.91;nan;101868.09;6195903;23;20411;-96
2022/10/13 17:02:22;;;;;;;14.73;4.93;;;;;;;24.84;nan;101887.00;6196569;23;20443;-95
2022/10/13 17:04:53;;;;;;;16.13;5.20;;;;;;;24.64;nan;101877.25;6197943;23;20429;-95
2022/10/13 17:07:21;;;;;;;16.07;5.47;;;;;;;24.34;nan;101868.47;6199089;23;20403;-96
2022/10/13 17:09:49;;;;;;;13.67;5.90;;;;;;;24.18;nan;101869.34;6198607;23;20417;-96
2022/10/13 17:12:19;;;;;;;17.47;5.73;;;;;;;23.94;nan;101872.31;6197893;23;20414;-95
2022/10/13 17:14:48;;;;;;;17.47;6.37;;;;;;;23.78;nan;101878.78;6222284;23;20722;-95
2022/10/13 17:17:16;;;;;;;13.70;5.40;;;;;;;23.59;nan;101875.38;6197961;23;20414;-96
2022/10/13 17:20:33;;;;;;;18.50;6.07;;;;;;;23.44;nan;101894.63;6197393;23;20433;-95
2022/10/13 17:23:02;;;;;;;30.13;7.20;;;;;;;23.09;nan;101876.09;6246688;23;20450;-95
2022/10/13 17:25:36;;;;;;;17.73;6.13;;;;;;;22.90;nan;101876.59;6222681;23;20411;-95
2022/10/13 17:28:04;;;;;;;23.27;6.47;;;;;;;22.83;nan;101899.00;6198784;23;20423;-96
2022/10/13 17:30:32;;;;;;;17.87;6.83;;;;;;;22.64;nan;101898.31;6198129;23;20470;-95
2022/10/13 17:33:00;;;;;;;12.03;5.30;;;;;;;22.52;nan;101886.31;6197297;23;20410;-96
2022/10/13 17:35:32;;;;;;;19.00;6.00;;;;;;;22.42;nan;101902.81;6198905;23;20545;-94
2022/10/13 17:38:01;;;;;;;11.27;5.50;;;;;;;22.21;nan;101889.53;6197333;23;20414;-95
2022/10/13 17:40:35;;;;;;;19.93;6.87;;;;;;;22.19;nan;101902.84;6197995;23;20422;-95
2022/10/13 17:43:04;;;;;;;13.93;5.53;;;;;;;22.22;nan;101917.13;6198085;23;20442;-95
2022/10/13 17:45:33;;;;;;;12.80;6.27;;;;;;;21.99;nan;101917.09;6222632;23;20748;-95
2022/10/13 17:48:02;;;;;;;20.10;6.80;;;;;;;21.86;nan;101915.38;6197608;23;20410;-95
2022/10/13 17:50:32;;;;;;;21.70;6.83;;;;;;;21.74;nan;101906.19;6197531;23;20418;-95
2022/10/13 17:53:02;;;;;;;17.90;6.07;;;;;;;21.74;nan;101916.47;6198803;23;20975;-95
2022/10/13 17:55:32;;;;;;;20.70;6.93;;;;;;;21.68;nan;101915.50;6197165;23;20415;-94
2022/10/13 17:58:03;;;;;;;17.10;5.93;;;;;;;21.72;nan;101930.63;6138290;23;20492;-96
2022/10/13 18:00:33;;;;;;;18.00;6.30;;;;;;;21.66;nan;101931.56;6137502;23;20416;-95
2022/10/13 18:03:23;;;;;;;21.83;7.60;;;;;;;21.60;nan;101926.94;6145538;23;20539;-95
2022/10/13 18:06:06;;;;;;;17.00;5.97;;;;;;;21.60;nan;101929.72;6143528;23;20475;-95
2022/10/13 18:08:34;;;;;;;14.93;6.20;;;;;;;21.52;nan;101927.31;6136401;23;20463;-95
2022/10/13 18:11:25;;;;;;;20.70;5.70;;;;;;;21.48;nan;101912.16;6137945;23;20417;-95
2022/10/13 18:13:58;;;;;;;13.73;5.77;;;;;;;21.49;nan;101925.84;6134720;23;20416;-95
2022/10/13 18:16:27;;;;;;;21.60;6.47;;;;;;;21.41;nan;101917.81;6186713;23;20411;-94
2022/10/13 18:18:55;;;;;;;20.53;5.50;;;;;;;21.31;nan;101917.56;6196705;23;20419;-95
2022/10/13 18:21:28;;;;;;;20.03;6.00;;;;;;;21.27;nan;101922.75;6219157;23;20522;-95
2022/10/13 18:23:57;;;;;;;17.67;4.90;;;;;;;21.30;nan;101927.00;6198987;23;20913;-95
2022/10/13 18:26:25;;;;;;;25.73;6.03;;;;;;;21.25;nan;101935.19;6197211;23;20418;-95
2022/10/13 18:28:53;;;;;;;17.10;5.93;;;;;;;21.22;nan;101942.06;6196548;23;20441;-95
2022/10/13 18:31:30;;;;;;;20.77;5.10;;;;;;;21.10;nan;101924.44;6221670;23;20414;-95
2022/10/13 18:33:59;;;;;;;20.40;5.53;;;;;;;21.04;nan;101923.44;6197154;23;20417;-95
2022/10/13 18:36:28;;;;;;;10.97;4.90;;;;;;;21.16;nan;101947.69;6197418;23;20391;-95
2022/10/13 18:39:19;;;;;;;9.80;5.17;;;;;;;21.03;nan;101940.38;6246399;23;20415;-95
2022/10/13 18:41:49;;;;;;;15.20;5.83;;;;;;;20.98;nan;101934.66;6197685;23;20497;-94
2022/10/13 18:44:28;;;;;;;11.80;5.40;;;;;;;21.03;nan;101944.00;6196235;23;20446;-95
2022/10/13 18:46:56;;;;;;;12.90;5.10;;;;;;;21.00;nan;101930.56;6199737;23;20411;-94
2022/10/13 18:49:32;;;;;;;17.03;5.80;;;;;;;20.93;nan;101940.09;6197468;23;20406;-94
2022/10/13 18:52:00;;;;;;;11.90;5.30;;;;;;;20.86;nan;101917.06;6199241;23;20448;-95
2022/10/13 18:54:28;;;;;;;20.30;6.63;;;;;;;20.93;nan;101937.31;6196913;23;20438;-95
2022/10/13 20:25:23;;;;;;;10.90;6.00;;;;;;;21.03;nan;101984.84;6240966;23;20401;-91
2022/10/13 20:28:10;;;;;;;16.60;7.23;;;;;;;21.05;nan;101996.59;6162299;23;20408;-89
2022/10/13 21:27:07;;;;;;;14.47;5.63;;;;;;;20.96;nan;102009.13;6235698;23;20929;-88
2022/10/13 21:29:34;;;;;;;19.33;7.33;;;;;;;21.01;nan;102020.38;6219130;23;20733;-87
2022/10/13 21:32:04;;;;;;;9.40;5.40;;;;;;;21.01;nan;102026.78;6219237;23;20908;-87
2022/10/13 21:34:34;;;;;;;13.50;6.00;;;;;;;21.00;nan;102036.19;6218719;23;20416;-89
2022/10/13 21:37:04;;;;;;;12.87;5.80;;;;;;;20.99;nan;102031.72;6244958;23;20526;-89
2022/10/13 21:39:55;;;;;;;16.50;5.87;;;;;;;21.00;nan;102032.56;6220336;23;20908;-89
2022/10/13 21:42:22;;;;;;;11.90;5.50;;;;;;;21.01;nan;102028.69;6243689;23;20399;-89
2022/10/13 21:44:50;;;;;;;15.17;5.23;;;;;;;20.96;nan;102029.44;6194640;23;20585;-89
2022/10/13 21:47:18;;;;;;;30.53;6.30;;;;;;;20.97;nan;102033.06;6194378;23;20482;-90
2022/10/13 21:49:46;;;;;;;11.40;5.10;;;;;;;20.97;nan;102041.41;6245869;23;20601;-90
2022/10/13 21:52:14;;;;;;;14.40;5.70;;;;;;;20.90;nan;102030.34;6195896;23;20893;-89
2022/10/13 21:54:42;;;;;;;15.43;6.07;;;;;;;20.87;nan;102032.72;6196261;23;20403;-88
2022/10/13 21:57:10;;;;;;;10.70;5.20;;;;;;;20.91;nan;102042.31;6221347;23;20395;-88
2022/10/13 21:59:40;;;;;;;21.70;6.60;;;;;;;20.91;nan;102039.53;6196457;23;20407;-88
2022/10/13 22:02:07;;;;;;;12.43;5.47;;;;;;;20.89;nan;102047.25;6246203;23;20395;-88
2022/10/13 22:04:35;;;;;;;14.10;6.30;;;;;;;20.82;nan;102040.91;6195655;23;20963;-88
2022/10/13 22:07:03;;;;;;;11.43;5.00;;;;;;;20.80;nan;102037.50;6220355;23;20470;-88
2022/10/13 22:09:31;;;;;;;16.50;6.20;;;;;;;20.78;nan;102048.03;6220827;23;20407;-89
2022/10/13 22:12:01;;;;;;;11.80;5.87;;;;;;;20.79;nan;102052.47;6245899;23;20486;-88
2022/10/13 22:14:30;;;;;;;14.30;6.07;;;;;;;20.76;nan;102047.41;6195762;23;20421;-88
2022/10/13 22:16:59;;;;;;;18.53;7.90;;;;;;;20.73;nan;102053.41;6220654;23;20407;-88
2022/10/13 22:19:29;;;;;;;18.77;7.13;;;;;;;20.72;nan;102060.03;6194924;23;20410;-86
2022/10/13 22:22:01;;;;;;;22.43;6.60;;;;;;;20.66;nan;102051.53;6244811;23;20853;-89
2022/10/13 22:24:34;;;;;;;21.83;6.97;;;;;;;20.62;nan;102052.22;6245954;23;20442;-89
2022/10/13 22:27:31;;;;;;;22.73;7.23;;;;;;;20.61;nan;102056.91;6222668;23;20746;-89
2022/10/13 22:30:11;;;;;;;23.17;7.40;;;;;;;20.54;nan;102049.75;6226394;23;20881;-88
2022/10/13 22:32:52;;;;;;;17.40;7.17;;;;;;;20.42;nan;102044.06;6195421;23;20426;-88
2022/10/13 22:35:24;;;;;;;20.13;7.90;;;;;;;20.43;nan;102059.66;6223370;23;20724;-88
2022/10/13 22:37:54;;;;;;;14.47;6.33;;;;;;;20.41;nan;102056.25;6220333;23;20489;-88
2022/10/13 22:40:22;;;;;;;15.93;6.10;;;;;;;20.40;nan;102065.66;6220567;23;20540;-88
2022/10/13 22:54:24;;;;;;;19.83;7.20;;;;;;;20.28;nan;102053.56;6247131;23;20406;-89
2022/10/13 23:19:30;;;;;;;21.30;8.40;;;;;;;19.94;nan;102032.69;6246582;23;20382;-89
2022/10/13 23:21:58;;;;;;;23.03;6.33;;;;;;;19.95;nan;102035.25;6219964;23;20969;-89
2022/10/13 23:24:28;;;;;;;15.00;6.40;;;;;;;19.87;nan;102034.66;6196845;23;20443;-89
2022/10/13 23:27:00;;;;;;;18.07;6.77;;;;;;;19.86;nan;102039.34;6220073;23;20435;-88
2022/10/13 23:29:28;;;;;;;17.10;6.97;;;;;;;19.77;nan;102020.44;6196137;23;20482;-89
2022/10/13 23:31:56;;;;;;;19.47;6.57;;;;;;;19.79;nan;102024.69;6195477;23;20469;-89
2022/10/13 23:57:01;;;;;;;21.60;7.67;;;;;;;19.43;nan;102013.34;6245725;23;20688;-88
2022/10/13 23:59:28;;;;;;;19.00;7.00;;;;;;;19.41;nan;102007.19;6243907;23;20470;-87
